sensor_id;sensor_type;location;lat;lon;timestamp;temperature;humidity
3528;DHT22;1778;47.966;7.854;2022-07-05T00:00:00;18.70;99.90
3528;DHT22;1778;47.966;7.854;2022-07-05T00:01:13;18.70;99.90
3528;DHT22;1778;47.966;7.854;2022-07-05T00:02:16;18.60;99.90
3528;DHT22;1778;47.966;7.854;2022-07-05T00:03:18;18.70;99.90
3528;DHT22;1778;47.966;7.854;2022-07-05T00:04:20;18.70;99.90
3528;DHT22;1778;47.966;7.854;2022-07-05T00:05:22;18.60;99.90
3528;DHT22;1778;47.966;7.854;2022-07-05T00:06:24;18.60;99.90
3528;DHT22;1778;47.966;7.854;2022-07-05T00:07:25;18.60;99.90
3528;DHT22;1778;47.966;7.854;2022-07-05T00:08:27;18.60;99.90
3528;DHT22;1778;47.966;7.854;2022-07-05T00:09:28;18.70;99.90
3528;DHT22;1778;47.966;7.854;2022-07-05T00:10:34;18.60;99.90
3528;DHT22;1778;47.966;7.854;2022-07-05T00:11:36;18.60;99.90
3528;DHT22;1778;47.966;7.854;2022-07-05T00:12:38;18.60;99.90
3528;DHT22;1778;47.966;7.854;2022-07-05T00:13:40;18.60;99.90
3528;DHT22;1778;47.966;7.854;2022-07-05T00:14:43;18.70;99.90
3528;DHT22;1778;47.966;7.854;2022-07-05T00:15:45;18.70;99.90
3528;DHT22;1778;47.966;7.854;2022-07-05T00:16:47;18.70;99.90
3528;DHT22;1778;47.966;7.854;2022-07-05T00:17:49;18.70;99.90
3528;DHT22;1778;47.966;7.854;2022-07-05T00:18:50;18.80;99.90
3528;DHT22;1778;47.966;7.854;2022-07-05T00:19:52;18.70;99.90
3528;DHT22;1778;47.966;7.854;2022-07-05T00:20:54;18.70;99.90
3528;DHT22;1778;47.966;7.854;2022-07-05T00:21:56;18.70;99.90
3528;DHT22;1778;47.966;7.854;2022-07-05T00:22:58;18.60;99.90
3528;DHT22;1778;47.966;7.854;2022-07-05T00:24:00;18.60;99.90
3528;DHT22;1778;47.966;7.854;2022-07-05T00:25:01;18.60;99.90
3528;DHT22;1778;47.966;7.854;2022-07-05T00:26:03;18.50;99.90
3528;DHT22;1778;47.966;7.854;2022-07-05T00:27:04;18.60;99.90
3528;DHT22;1778;47.966;7.854;2022-07-05T00:28:06;18.60;99.90
3528;DHT22;1778;47.966;7.854;2022-07-05T00:29:08;18.60;99.90
3528;DHT22;1778;47.966;7.854;2022-07-05T00:30:10;18.50;99.90
3528;DHT22;1778;47.966;7.854;2022-07-05T00:31:12;18.60;99.90
3528;DHT22;1778;47.966;7.854;2022-07-05T00:32:13;18.60;99.90
3528;DHT22;1778;47.966;7.854;2022-07-05T00:33:15;18.60;99.90
3528;DHT22;1778;47.966;7.854;2022-07-05T00:34:17;18.60;99.90
3528;DHT22;1778;47.966;7.854;2022-07-05T00:35:18;18.70;99.90
3528;DHT22;1778;47.966;7.854;2022-07-05T00:36:20;18.70;99.90
3528;DHT22;1778;47.966;7.854;2022-07-05T00:37:21;18.70;99.90
3528;DHT22;1778;47.966;7.854;2022-07-05T00:38:23;18.70;99.90
3528;DHT22;1778;47.966;7.854;2022-07-05T00:39:25;18.70;99.90
3528;DHT22;1778;47.966;7.854;2022-07-05T00:40:28;18.70;99.90
3528;DHT22;1778;47.966;7.854;2022-07-05T00:41:29;18.60;99.90
3528;DHT22;1778;47.966;7.854;2022-07-05T00:42:31;18.60;99.90
3528;DHT22;1778;47.966;7.854;2022-07-05T00:43:32;18.60;99.90
3528;DHT22;1778;47.966;7.854;2022-07-05T00:44:37;18.60;99.90
3528;DHT22;1778;47.966;7.854;2022-07-05T00:45:39;18.60;99.90
3528;DHT22;1778;47.966;7.854;2022-07-05T00:46:43;18.60;99.90
3528;DHT22;1778;47.966;7.854;2022-07-05T00:47:45;18.60;99.90
3528;DHT22;1778;47.966;7.854;2022-07-05T00:48:47;18.50;99.90
3528;DHT22;1778;47.966;7.854;2022-07-05T00:49:49;18.50;99.90
3528;DHT22;1778;47.966;7.854;2022-07-05T00:50:51;18.60;99.90
3528;DHT22;1778;47.966;7.854;2022-07-05T00:51:53;18.60;99.90
3528;DHT22;1778;47.966;7.854;2022-07-05T00:53:15;18.50;99.90
3528;DHT22;1778;47.966;7.854;2022-07-05T00:54:16;18.60;99.90
3528;DHT22;1778;47.966;7.854;2022-07-05T00:55:18;18.60;99.90
3528;DHT22;1778;47.966;7.854;2022-07-05T00:56:20;18.60;99.90
3528;DHT22;1778;47.966;7.854;2022-07-05T00:57:22;18.70;99.90
3528;DHT22;1778;47.966;7.854;2022-07-05T00:58:24;18.60;99.90
3528;DHT22;1778;47.966;7.854;2022-07-05T00:59:27;18.80;99.90
3528;DHT22;1778;47.966;7.854;2022-07-05T01:00:29;18.70;99.90
3528;DHT22;1778;47.966;7.854;2022-07-05T01:01:31;18.70;99.90
3528;DHT22;1778;47.966;7.854;2022-07-05T01:02:32;18.70;99.90
3528;DHT22;1778;47.966;7.854;2022-07-05T01:03:34;18.70;99.90
3528;DHT22;1778;47.966;7.854;2022-07-05T01:04:37;18.70;99.90
3528;DHT22;1778;47.966;7.854;2022-07-05T01:05:38;18.70;99.90
3528;DHT22;1778;47.966;7.854;2022-07-05T01:06:43;18.70;99.90
3528;DHT22;1778;47.966;7.854;2022-07-05T01:07:46;18.70;99.90
3528;DHT22;1778;47.966;7.854;2022-07-05T01:08:48;18.70;99.90
3528;DHT22;1778;47.966;7.854;2022-07-05T01:09:50;18.60;99.90
3528;DHT22;1778;47.966;7.854;2022-07-05T01:10:52;18.60;99.90
3528;DHT22;1778;47.966;7.854;2022-07-05T01:11:55;18.70;99.90
3528;DHT22;1778;47.966;7.854;2022-07-05T01:12:57;18.70;99.90
3528;DHT22;1778;47.966;7.854;2022-07-05T01:13:59;18.70;99.90
3528;DHT22;1778;47.966;7.854;2022-07-05T01:15:02;18.70;99.90
3528;DHT22;1778;47.966;7.854;2022-07-05T01:16:05;18.80;99.90
3528;DHT22;1778;47.966;7.854;2022-07-05T01:17:07;18.80;99.90
3528;DHT22;1778;47.966;7.854;2022-07-05T01:18:09;18.80;99.90
3528;DHT22;1778;47.966;7.854;2022-07-05T01:19:12;18.70;99.90
3528;DHT22;1778;47.966;7.854;2022-07-05T01:20:14;18.70;99.90
3528;DHT22;1778;47.966;7.854;2022-07-05T01:21:17;18.70;99.90
3528;DHT22;1778;47.966;7.854;2022-07-05T01:22:25;18.70;99.90
3528;DHT22;1778;47.966;7.854;2022-07-05T01:23:29;18.70;99.90
3528;DHT22;1778;47.966;7.854;2022-07-05T01:24:31;18.70;99.90
3528;DHT22;1778;47.966;7.854;2022-07-05T01:25:33;18.70;99.90
3528;DHT22;1778;47.966;7.854;2022-07-05T01:26:37;18.60;99.90
3528;DHT22;1778;47.966;7.854;2022-07-05T01:27:38;18.60;99.90
3528;DHT22;1778;47.966;7.854;2022-07-05T01:28:40;18.60;99.90
3528;DHT22;1778;47.966;7.854;2022-07-05T01:29:42;18.60;99.90
3528;DHT22;1778;47.966;7.854;2022-07-05T01:30:44;18.60;99.90
3528;DHT22;1778;47.966;7.854;2022-07-05T01:31:46;18.60;99.90
3528;DHT22;1778;47.966;7.854;2022-07-05T01:32:48;18.50;99.90
3528;DHT22;1778;47.966;7.854;2022-07-05T01:33:50;18.60;99.90
3528;DHT22;1778;47.966;7.854;2022-07-05T01:34:52;18.50;99.90
3528;DHT22;1778;47.966;7.854;2022-07-05T01:35:53;18.50;99.90
3528;DHT22;1778;47.966;7.854;2022-07-05T01:36:55;18.50;99.90
3528;DHT22;1778;47.966;7.854;2022-07-05T01:37:57;18.50;99.90
3528;DHT22;1778;47.966;7.854;2022-07-05T01:39:01;18.40;99.90
3528;DHT22;1778;47.966;7.854;2022-07-05T01:40:03;18.40;99.90
3528;DHT22;1778;47.966;7.854;2022-07-05T01:41:05;18.40;99.90
3528;DHT22;1778;47.966;7.854;2022-07-05T01:42:08;18.40;99.90
3528;DHT22;1778;47.966;7.854;2022-07-05T01:43:09;18.40;99.90
3528;DHT22;1778;47.966;7.854;2022-07-05T01:44:11;18.40;99.90
3528;DHT22;1778;47.966;7.854;2022-07-05T01:45:13;18.40;99.90
3528;DHT22;1778;47.966;7.854;2022-07-05T01:46:36;18.40;99.90
3528;DHT22;1778;47.966;7.854;2022-07-05T01:47:43;18.30;99.90
3528;DHT22;1778;47.966;7.854;2022-07-05T01:48:46;18.20;99.90
3528;DHT22;1778;47.966;7.854;2022-07-05T01:49:52;18.10;99.90
3528;DHT22;1778;47.966;7.854;2022-07-05T01:51:07;18.10;99.90
3528;DHT22;1778;47.966;7.854;2022-07-05T01:52:12;18.00;99.90
3528;DHT22;1778;47.966;7.854;2022-07-05T01:53:18;18.00;99.90
3528;DHT22;1778;47.966;7.854;2022-07-05T01:54:20;18.00;99.90
3528;DHT22;1778;47.966;7.854;2022-07-05T01:55:22;18.00;99.90
3528;DHT22;1778;47.966;7.854;2022-07-05T01:56:25;17.90;99.90
3528;DHT22;1778;47.966;7.854;2022-07-05T01:57:27;17.90;99.90
3528;DHT22;1778;47.966;7.854;2022-07-05T01:58:30;17.90;99.90
3528;DHT22;1778;47.966;7.854;2022-07-05T01:59:33;17.80;99.90
3528;DHT22;1778;47.966;7.854;2022-07-05T02:00:50;17.80;99.90
3528;DHT22;1778;47.966;7.854;2022-07-05T02:01:52;17.80;99.90
3528;DHT22;1778;47.966;7.854;2022-07-05T02:02:54;17.90;99.90
3528;DHT22;1778;47.966;7.854;2022-07-05T02:03:56;17.80;99.90
3528;DHT22;1778;47.966;7.854;2022-07-05T02:04:59;17.80;99.90
3528;DHT22;1778;47.966;7.854;2022-07-05T02:06:01;17.70;99.90
3528;DHT22;1778;47.966;7.854;2022-07-05T02:07:05;17.70;99.90
3528;DHT22;1778;47.966;7.854;2022-07-05T02:08:07;17.70;99.90
3528;DHT22;1778;47.966;7.854;2022-07-05T02:09:08;17.60;99.90
3528;DHT22;1778;47.966;7.854;2022-07-05T02:10:10;17.70;99.90
3528;DHT22;1778;47.966;7.854;2022-07-05T02:11:12;17.70;99.90
3528;DHT22;1778;47.966;7.854;2022-07-05T02:12:14;17.70;99.90
3528;DHT22;1778;47.966;7.854;2022-07-05T02:13:15;17.70;99.90
3528;DHT22;1778;47.966;7.854;2022-07-05T02:14:18;17.60;99.90
3528;DHT22;1778;47.966;7.854;2022-07-05T02:15:20;17.60;99.90
3528;DHT22;1778;47.966;7.854;2022-07-05T02:16:26;17.60;99.90
3528;DHT22;1778;47.966;7.854;2022-07-05T02:17:27;17.60;99.90
3528;DHT22;1778;47.966;7.854;2022-07-05T02:18:29;17.60;99.90
3528;DHT22;1778;47.966;7.854;2022-07-05T02:19:31;17.70;99.90
3528;DHT22;1778;47.966;7.854;2022-07-05T02:20:33;17.70;99.90
3528;DHT22;1778;47.966;7.854;2022-07-05T02:21:35;17.60;99.90
3528;DHT22;1778;47.966;7.854;2022-07-05T02:22:39;17.60;99.90
3528;DHT22;1778;47.966;7.854;2022-07-05T02:23:41;17.50;99.90
3528;DHT22;1778;47.966;7.854;2022-07-05T02:24:43;17.50;99.90
3528;DHT22;1778;47.966;7.854;2022-07-05T02:25:51;17.50;99.90
3528;DHT22;1778;47.966;7.854;2022-07-05T02:26:53;17.50;99.90
3528;DHT22;1778;47.966;7.854;2022-07-05T02:27:56;17.50;99.90
3528;DHT22;1778;47.966;7.854;2022-07-05T02:28:58;17.50;99.90
3528;DHT22;1778;47.966;7.854;2022-07-05T02:30:00;17.40;99.90
3528;DHT22;1778;47.966;7.854;2022-07-05T02:31:11;17.50;99.90
3528;DHT22;1778;47.966;7.854;2022-07-05T02:32:13;17.50;99.90
3528;DHT22;1778;47.966;7.854;2022-07-05T02:33:15;17.50;99.90
3528;DHT22;1778;47.966;7.854;2022-07-05T02:34:17;17.50;99.90
3528;DHT22;1778;47.966;7.854;2022-07-05T02:35:19;17.40;99.90
3528;DHT22;1778;47.966;7.854;2022-07-05T02:36:22;17.40;99.90
3528;DHT22;1778;47.966;7.854;2022-07-05T02:37:24;17.40;99.90
3528;DHT22;1778;47.966;7.854;2022-07-05T02:38:25;17.40;99.90
3528;DHT22;1778;47.966;7.854;2022-07-05T02:39:27;17.40;99.90
3528;DHT22;1778;47.966;7.854;2022-07-05T02:40:32;17.40;99.90
3528;DHT22;1778;47.966;7.854;2022-07-05T02:41:36;17.30;99.90
3528;DHT22;1778;47.966;7.854;2022-07-05T02:42:39;17.30;99.90
3528;DHT22;1778;47.966;7.854;2022-07-05T02:43:43;17.20;99.90
3528;DHT22;1778;47.966;7.854;2022-07-05T02:44:45;17.10;99.90
3528;DHT22;1778;47.966;7.854;2022-07-05T02:45:48;17.10;99.90
3528;DHT22;1778;47.966;7.854;2022-07-05T02:46:52;17.10;99.90
3528;DHT22;1778;47.966;7.854;2022-07-05T02:47:56;17.00;99.90
3528;DHT22;1778;47.966;7.854;2022-07-05T02:48:59;17.10;99.90
3528;DHT22;1778;47.966;7.854;2022-07-05T02:50:09;17.00;99.90
3528;DHT22;1778;47.966;7.854;2022-07-05T02:51:16;17.10;99.90
3528;DHT22;1778;47.966;7.854;2022-07-05T02:52:21;17.10;99.90
3528;DHT22;1778;47.966;7.854;2022-07-05T02:53:23;17.00;99.90
3528;DHT22;1778;47.966;7.854;2022-07-05T02:54:25;17.00;99.90
3528;DHT22;1778;47.966;7.854;2022-07-05T02:55:28;17.00;99.90
3528;DHT22;1778;47.966;7.854;2022-07-05T02:56:30;17.00;99.90
3528;DHT22;1778;47.966;7.854;2022-07-05T02:57:32;17.00;99.90
3528;DHT22;1778;47.966;7.854;2022-07-05T02:58:37;17.00;99.90
3528;DHT22;1778;47.966;7.854;2022-07-05T02:59:39;16.90;99.90
3528;DHT22;1778;47.966;7.854;2022-07-05T03:00:41;16.90;99.90
3528;DHT22;1778;47.966;7.854;2022-07-05T03:01:43;16.90;99.90
3528;DHT22;1778;47.966;7.854;2022-07-05T03:02:48;16.80;99.90
3528;DHT22;1778;47.966;7.854;2022-07-05T03:03:50;16.80;99.90
3528;DHT22;1778;47.966;7.854;2022-07-05T03:04:54;16.80;99.90
3528;DHT22;1778;47.966;7.854;2022-07-05T03:05:55;16.80;99.90
3528;DHT22;1778;47.966;7.854;2022-07-05T03:06:57;16.80;99.90
3528;DHT22;1778;47.966;7.854;2022-07-05T03:08:03;16.80;99.90
3528;DHT22;1778;47.966;7.854;2022-07-05T03:09:06;16.70;99.90
3528;DHT22;1778;47.966;7.854;2022-07-05T03:10:09;16.80;99.90
3528;DHT22;1778;47.966;7.854;2022-07-05T03:11:11;16.70;99.90
3528;DHT22;1778;47.966;7.854;2022-07-05T03:12:13;16.70;99.90
3528;DHT22;1778;47.966;7.854;2022-07-05T03:13:14;16.70;99.90
3528;DHT22;1778;47.966;7.854;2022-07-05T03:14:16;16.70;99.90
3528;DHT22;1778;47.966;7.854;2022-07-05T03:15:19;16.70;99.90
3528;DHT22;1778;47.966;7.854;2022-07-05T03:16:22;16.70;99.90
3528;DHT22;1778;47.966;7.854;2022-07-05T03:17:26;16.60;99.90
3528;DHT22;1778;47.966;7.854;2022-07-05T03:18:28;16.70;99.90
3528;DHT22;1778;47.966;7.854;2022-07-05T03:19:30;16.60;99.90
3528;DHT22;1778;47.966;7.854;2022-07-05T03:20:32;16.60;99.90
3528;DHT22;1778;47.966;7.854;2022-07-05T03:21:34;16.60;99.90
3528;DHT22;1778;47.966;7.854;2022-07-05T03:22:36;16.60;99.90
3528;DHT22;1778;47.966;7.854;2022-07-05T03:23:38;16.60;99.90
3528;DHT22;1778;47.966;7.854;2022-07-05T03:24:39;16.60;99.90
3528;DHT22;1778;47.966;7.854;2022-07-05T03:25:41;16.50;99.90
3528;DHT22;1778;47.966;7.854;2022-07-05T03:26:45;16.60;99.90
3528;DHT22;1778;47.966;7.854;2022-07-05T03:27:46;16.60;99.90
3528;DHT22;1778;47.966;7.854;2022-07-05T03:28:48;16.60;99.90
3528;DHT22;1778;47.966;7.854;2022-07-05T03:29:50;16.60;99.90
3528;DHT22;1778;47.966;7.854;2022-07-05T03:30:53;16.60;99.90
3528;DHT22;1778;47.966;7.854;2022-07-05T03:31:56;16.60;99.90
3528;DHT22;1778;47.966;7.854;2022-07-05T03:33:00;16.50;99.90
3528;DHT22;1778;47.966;7.854;2022-07-05T03:34:05;16.60;99.90
3528;DHT22;1778;47.966;7.854;2022-07-05T03:35:07;16.60;99.90
3528;DHT22;1778;47.966;7.854;2022-07-05T03:36:10;16.60;99.90
3528;DHT22;1778;47.966;7.854;2022-07-05T03:37:14;16.60;99.90
3528;DHT22;1778;47.966;7.854;2022-07-05T03:38:16;16.60;99.90
3528;DHT22;1778;47.966;7.854;2022-07-05T03:39:19;16.60;99.90
3528;DHT22;1778;47.966;7.854;2022-07-05T03:40:21;16.60;99.90
3528;DHT22;1778;47.966;7.854;2022-07-05T03:41:23;16.50;99.90
3528;DHT22;1778;47.966;7.854;2022-07-05T03:42:26;16.60;99.90
3528;DHT22;1778;47.966;7.854;2022-07-05T03:43:28;16.60;99.90
3528;DHT22;1778;47.966;7.854;2022-07-05T03:44:29;16.50;99.90
3528;DHT22;1778;47.966;7.854;2022-07-05T03:45:36;16.60;99.90
3528;DHT22;1778;47.966;7.854;2022-07-05T03:46:39;16.70;99.90
3528;DHT22;1778;47.966;7.854;2022-07-05T03:47:41;16.70;99.90
3528;DHT22;1778;47.966;7.854;2022-07-05T03:48:45;16.70;99.90
3528;DHT22;1778;47.966;7.854;2022-07-05T03:49:51;16.70;99.90
3528;DHT22;1778;47.966;7.854;2022-07-05T03:50:52;16.70;99.90
3528;DHT22;1778;47.966;7.854;2022-07-05T03:51:54;16.70;99.90
3528;DHT22;1778;47.966;7.854;2022-07-05T03:52:56;16.70;99.90
3528;DHT22;1778;47.966;7.854;2022-07-05T03:53:58;16.70;99.90
3528;DHT22;1778;47.966;7.854;2022-07-05T03:55:00;16.80;99.90
3528;DHT22;1778;47.966;7.854;2022-07-05T03:56:02;16.70;99.90
3528;DHT22;1778;47.966;7.854;2022-07-05T03:57:04;16.70;99.90
3528;DHT22;1778;47.966;7.854;2022-07-05T03:58:05;16.70;99.90
3528;DHT22;1778;47.966;7.854;2022-07-05T03:59:07;16.70;99.90
3528;DHT22;1778;47.966;7.854;2022-07-05T04:00:10;16.80;99.90
3528;DHT22;1778;47.966;7.854;2022-07-05T04:01:19;16.70;99.90
3528;DHT22;1778;47.966;7.854;2022-07-05T04:02:22;16.70;99.90
3528;DHT22;1778;47.966;7.854;2022-07-05T04:03:23;16.70;99.90
3528;DHT22;1778;47.966;7.854;2022-07-05T04:04:26;16.70;99.90
3528;DHT22;1778;47.966;7.854;2022-07-05T04:05:28;16.70;99.90
3528;DHT22;1778;47.966;7.854;2022-07-05T04:06:30;16.70;99.90
3528;DHT22;1778;47.966;7.854;2022-07-05T04:07:33;16.70;99.90
3528;DHT22;1778;47.966;7.854;2022-07-05T04:08:35;16.70;99.90
3528;DHT22;1778;47.966;7.854;2022-07-05T04:09:37;16.70;99.90
3528;DHT22;1778;47.966;7.854;2022-07-05T04:10:40;16.70;99.90
3528;DHT22;1778;47.966;7.854;2022-07-05T04:11:41;16.70;99.90
3528;DHT22;1778;47.966;7.854;2022-07-05T04:12:43;16.70;99.90
3528;DHT22;1778;47.966;7.854;2022-07-05T04:13:45;16.70;99.90
3528;DHT22;1778;47.966;7.854;2022-07-05T04:14:47;16.70;99.90
3528;DHT22;1778;47.966;7.854;2022-07-05T04:15:49;16.70;99.90
3528;DHT22;1778;47.966;7.854;2022-07-05T04:16:51;16.80;99.90
3528;DHT22;1778;47.966;7.854;2022-07-05T04:17:55;16.70;99.90
3528;DHT22;1778;47.966;7.854;2022-07-05T04:18:59;16.80;99.90
3528;DHT22;1778;47.966;7.854;2022-07-05T04:20:03;16.70;99.90
3528;DHT22;1778;47.966;7.854;2022-07-05T04:21:05;16.80;99.90
3528;DHT22;1778;47.966;7.854;2022-07-05T04:22:07;16.80;99.90
3528;DHT22;1778;47.966;7.854;2022-07-05T04:23:09;16.80;99.90
3528;DHT22;1778;47.966;7.854;2022-07-05T04:24:10;16.80;99.90
3528;DHT22;1778;47.966;7.854;2022-07-05T04:25:12;16.80;99.90
3528;DHT22;1778;47.966;7.854;2022-07-05T04:26:30;16.80;99.90
3528;DHT22;1778;47.966;7.854;2022-07-05T04:27:32;16.80;99.90
3528;DHT22;1778;47.966;7.854;2022-07-05T04:28:33;16.80;99.90
3528;DHT22;1778;47.966;7.854;2022-07-05T04:29:37;16.80;99.90
3528;DHT22;1778;47.966;7.854;2022-07-05T04:30:39;16.90;99.90
3528;DHT22;1778;47.966;7.854;2022-07-05T04:31:43;16.80;99.90
3528;DHT22;1778;47.966;7.854;2022-07-05T04:32:46;16.80;99.90
3528;DHT22;1778;47.966;7.854;2022-07-05T04:33:47;16.70;99.90
3528;DHT22;1778;47.966;7.854;2022-07-05T04:34:54;16.80;99.90
3528;DHT22;1778;47.966;7.854;2022-07-05T04:35:56;16.80;99.90
3528;DHT22;1778;47.966;7.854;2022-07-05T04:36:58;16.80;99.90
3528;DHT22;1778;47.966;7.854;2022-07-05T04:37:59;16.80;99.90
3528;DHT22;1778;47.966;7.854;2022-07-05T04:39:02;16.80;99.90
3528;DHT22;1778;47.966;7.854;2022-07-05T04:40:08;16.80;99.90
3528;DHT22;1778;47.966;7.854;2022-07-05T04:41:10;16.80;99.90
3528;DHT22;1778;47.966;7.854;2022-07-05T04:42:13;16.80;99.90
3528;DHT22;1778;47.966;7.854;2022-07-05T04:43:15;16.80;99.90
3528;DHT22;1778;47.966;7.854;2022-07-05T04:44:16;16.80;99.90
3528;DHT22;1778;47.966;7.854;2022-07-05T04:45:18;16.70;99.90
3528;DHT22;1778;47.966;7.854;2022-07-05T04:46:20;16.80;99.90
3528;DHT22;1778;47.966;7.854;2022-07-05T04:47:24;16.70;99.90
3528;DHT22;1778;47.966;7.854;2022-07-05T04:48:27;16.70;99.90
3528;DHT22;1778;47.966;7.854;2022-07-05T04:49:28;16.70;99.90
3528;DHT22;1778;47.966;7.854;2022-07-05T04:50:31;16.70;99.90
3528;DHT22;1778;47.966;7.854;2022-07-05T04:51:32;16.70;99.90
3528;DHT22;1778;47.966;7.854;2022-07-05T04:52:34;16.60;99.90
3528;DHT22;1778;47.966;7.854;2022-07-05T04:53:36;16.60;99.90
3528;DHT22;1778;47.966;7.854;2022-07-05T04:54:37;16.60;99.90
3528;DHT22;1778;47.966;7.854;2022-07-05T04:55:39;16.60;99.90
3528;DHT22;1778;47.966;7.854;2022-07-05T04:56:41;16.60;99.90
3528;DHT22;1778;47.966;7.854;2022-07-05T04:57:43;16.60;99.90
3528;DHT22;1778;47.966;7.854;2022-07-05T04:58:45;16.60;99.90
3528;DHT22;1778;47.966;7.854;2022-07-05T04:59:47;16.60;99.90
3528;DHT22;1778;47.966;7.854;2022-07-05T05:00:49;16.50;99.90
3528;DHT22;1778;47.966;7.854;2022-07-05T05:01:51;16.50;99.90
3528;DHT22;1778;47.966;7.854;2022-07-05T05:02:53;16.50;99.90
3528;DHT22;1778;47.966;7.854;2022-07-05T05:03:54;16.50;99.90
3528;DHT22;1778;47.966;7.854;2022-07-05T05:04:56;16.50;99.90
3528;DHT22;1778;47.966;7.854;2022-07-05T05:05:57;16.50;99.90
3528;DHT22;1778;47.966;7.854;2022-07-05T05:06:59;16.50;99.90
3528;DHT22;1778;47.966;7.854;2022-07-05T05:08:01;16.50;99.90
3528;DHT22;1778;47.966;7.854;2022-07-05T05:09:02;16.50;99.90
3528;DHT22;1778;47.966;7.854;2022-07-05T05:10:05;16.50;99.90
3528;DHT22;1778;47.966;7.854;2022-07-05T05:11:08;16.50;99.90
3528;DHT22;1778;47.966;7.854;2022-07-05T05:12:10;16.50;99.90
3528;DHT22;1778;47.966;7.854;2022-07-05T05:13:11;16.60;99.90
3528;DHT22;1778;47.966;7.854;2022-07-05T05:14:14;16.60;99.90
3528;DHT22;1778;47.966;7.854;2022-07-05T05:15:16;16.70;99.90
3528;DHT22;1778;47.966;7.854;2022-07-05T05:16:18;16.70;99.90
3528;DHT22;1778;47.966;7.854;2022-07-05T05:17:19;16.80;99.90
3528;DHT22;1778;47.966;7.854;2022-07-05T05:18:21;16.80;99.90
3528;DHT22;1778;47.966;7.854;2022-07-05T05:19:26;16.80;99.90
3528;DHT22;1778;47.966;7.854;2022-07-05T05:20:27;16.80;99.90
3528;DHT22;1778;47.966;7.854;2022-07-05T05:21:29;16.90;99.90
3528;DHT22;1778;47.966;7.854;2022-07-05T05:22:30;16.90;99.90
3528;DHT22;1778;47.966;7.854;2022-07-05T05:23:32;16.90;99.90
3528;DHT22;1778;47.966;7.854;2022-07-05T05:24:34;16.90;99.90
3528;DHT22;1778;47.966;7.854;2022-07-05T05:25:36;17.00;99.90
3528;DHT22;1778;47.966;7.854;2022-07-05T05:26:37;17.00;99.90
3528;DHT22;1778;47.966;7.854;2022-07-05T05:27:49;17.00;99.90
3528;DHT22;1778;47.966;7.854;2022-07-05T05:28:52;17.10;99.90
3528;DHT22;1778;47.966;7.854;2022-07-05T05:29:53;17.20;99.90
3528;DHT22;1778;47.966;7.854;2022-07-05T05:30:55;17.20;99.90
3528;DHT22;1778;47.966;7.854;2022-07-05T05:31:57;17.20;99.90
3528;DHT22;1778;47.966;7.854;2022-07-05T05:32:58;17.20;99.90
3528;DHT22;1778;47.966;7.854;2022-07-05T05:34:00;17.20;99.90
3528;DHT22;1778;47.966;7.854;2022-07-05T05:35:02;17.20;99.90
3528;DHT22;1778;47.966;7.854;2022-07-05T05:36:04;17.20;99.90
3528;DHT22;1778;47.966;7.854;2022-07-05T05:37:05;17.20;99.90
3528;DHT22;1778;47.966;7.854;2022-07-05T05:38:07;17.30;99.90
3528;DHT22;1778;47.966;7.854;2022-07-05T05:39:08;17.40;99.90
3528;DHT22;1778;47.966;7.854;2022-07-05T05:40:10;17.40;99.90
3528;DHT22;1778;47.966;7.854;2022-07-05T05:41:12;17.50;99.90
3528;DHT22;1778;47.966;7.854;2022-07-05T05:42:13;17.50;99.90
3528;DHT22;1778;47.966;7.854;2022-07-05T05:43:15;17.50;99.90
3528;DHT22;1778;47.966;7.854;2022-07-05T05:44:16;17.50;99.90
3528;DHT22;1778;47.966;7.854;2022-07-05T05:45:19;17.50;99.90
3528;DHT22;1778;47.966;7.854;2022-07-05T05:46:20;17.50;99.90
3528;DHT22;1778;47.966;7.854;2022-07-05T05:47:22;17.60;99.90
3528;DHT22;1778;47.966;7.854;2022-07-05T05:48:23;17.60;99.90
3528;DHT22;1778;47.966;7.854;2022-07-05T05:49:25;17.60;99.90
3528;DHT22;1778;47.966;7.854;2022-07-05T05:50:31;17.70;99.90
3528;DHT22;1778;47.966;7.854;2022-07-05T05:51:32;17.70;99.90
3528;DHT22;1778;47.966;7.854;2022-07-05T05:52:34;17.80;99.90
3528;DHT22;1778;47.966;7.854;2022-07-05T05:53:35;17.80;99.90
3528;DHT22;1778;47.966;7.854;2022-07-05T05:54:37;17.80;99.90
3528;DHT22;1778;47.966;7.854;2022-07-05T05:55:39;17.90;99.90
3528;DHT22;1778;47.966;7.854;2022-07-05T05:56:42;17.90;99.90
3528;DHT22;1778;47.966;7.854;2022-07-05T05:57:44;18.00;99.90
3528;DHT22;1778;47.966;7.854;2022-07-05T05:58:46;18.00;99.90
3528;DHT22;1778;47.966;7.854;2022-07-05T05:59:48;18.10;99.90
3528;DHT22;1778;47.966;7.854;2022-07-05T06:00:50;18.10;99.90
3528;DHT22;1778;47.966;7.854;2022-07-05T06:01:53;18.10;99.90
3528;DHT22;1778;47.966;7.854;2022-07-05T06:02:55;18.20;99.90
3528;DHT22;1778;47.966;7.854;2022-07-05T06:03:57;18.20;99.90
3528;DHT22;1778;47.966;7.854;2022-07-05T06:04:59;18.30;99.90
3528;DHT22;1778;47.966;7.854;2022-07-05T06:06:01;18.30;99.90
3528;DHT22;1778;47.966;7.854;2022-07-05T06:07:02;18.40;99.90
3528;DHT22;1778;47.966;7.854;2022-07-05T06:08:04;18.40;99.90
3528;DHT22;1778;47.966;7.854;2022-07-05T06:09:05;18.50;99.90
3528;DHT22;1778;47.966;7.854;2022-07-05T06:10:07;18.50;99.90
3528;DHT22;1778;47.966;7.854;2022-07-05T06:11:09;18.60;99.90
3528;DHT22;1778;47.966;7.854;2022-07-05T06:12:10;18.60;99.90
3528;DHT22;1778;47.966;7.854;2022-07-05T06:13:13;18.70;99.90
3528;DHT22;1778;47.966;7.854;2022-07-05T06:14:15;18.80;99.90
3528;DHT22;1778;47.966;7.854;2022-07-05T06:15:17;18.80;99.90
3528;DHT22;1778;47.966;7.854;2022-07-05T06:16:19;18.90;99.90
3528;DHT22;1778;47.966;7.854;2022-07-05T06:17:21;19.10;99.90
3528;DHT22;1778;47.966;7.854;2022-07-05T06:18:22;19.10;99.90
3528;DHT22;1778;47.966;7.854;2022-07-05T06:19:24;19.10;99.90
3528;DHT22;1778;47.966;7.854;2022-07-05T06:20:33;19.20;99.90
3528;DHT22;1778;47.966;7.854;2022-07-05T06:21:35;19.30;99.90
3528;DHT22;1778;47.966;7.854;2022-07-05T06:22:36;19.30;99.90
3528;DHT22;1778;47.966;7.854;2022-07-05T06:23:38;19.30;99.90
3528;DHT22;1778;47.966;7.854;2022-07-05T06:24:40;19.40;99.90
3528;DHT22;1778;47.966;7.854;2022-07-05T06:25:41;19.40;99.90
3528;DHT22;1778;47.966;7.854;2022-07-05T06:26:43;19.50;99.90
3528;DHT22;1778;47.966;7.854;2022-07-05T06:27:47;19.50;99.90
3528;DHT22;1778;47.966;7.854;2022-07-05T06:28:49;19.40;99.90
3528;DHT22;1778;47.966;7.854;2022-07-05T06:29:51;19.50;99.90
3528;DHT22;1778;47.966;7.854;2022-07-05T06:30:52;19.50;99.90
3528;DHT22;1778;47.966;7.854;2022-07-05T06:31:54;19.50;99.90
3528;DHT22;1778;47.966;7.854;2022-07-05T06:32:56;19.50;99.90
3528;DHT22;1778;47.966;7.854;2022-07-05T06:33:59;19.60;99.90
3528;DHT22;1778;47.966;7.854;2022-07-05T06:35:01;19.70;99.90
3528;DHT22;1778;47.966;7.854;2022-07-05T06:36:03;19.70;99.90
3528;DHT22;1778;47.966;7.854;2022-07-05T06:37:05;19.70;99.90
3528;DHT22;1778;47.966;7.854;2022-07-05T06:38:08;19.70;99.90
3528;DHT22;1778;47.966;7.854;2022-07-05T06:39:09;19.60;99.90
3528;DHT22;1778;47.966;7.854;2022-07-05T06:40:12;19.60;99.90
3528;DHT22;1778;47.966;7.854;2022-07-05T06:41:18;19.60;99.90
3528;DHT22;1778;47.966;7.854;2022-07-05T06:42:20;19.60;99.90
3528;DHT22;1778;47.966;7.854;2022-07-05T06:43:23;19.70;99.90
3528;DHT22;1778;47.966;7.854;2022-07-05T06:44:30;19.80;99.90
3528;DHT22;1778;47.966;7.854;2022-07-05T06:45:37;19.80;99.90
3528;DHT22;1778;47.966;7.854;2022-07-05T06:46:38;20.00;99.90
3528;DHT22;1778;47.966;7.854;2022-07-05T06:47:40;20.00;99.90
3528;DHT22;1778;47.966;7.854;2022-07-05T06:48:41;20.10;99.90